sensor_id;sensor_type;location;lat;lon;timestamp;P1;durP1;ratioP1;P2;durP2;ratioP2
32780;SDS011;19136;47.032;15.502;2022-09-09T00:02:21;12.25;;;0.95;;
32780;SDS011;19136;47.032;15.502;2022-09-09T00:04:53;4.78;;;0.85;;
32780;SDS011;19136;47.032;15.502;2022-09-09T00:07:28;10.65;;;0.80;;
32780;SDS011;19136;47.032;15.502;2022-09-09T00:12:48;12.50;;;1.10;;
32780;SDS011;19136;47.032;15.502;2022-09-09T00:15:33;2.42;;;0.80;;
32780;SDS011;19136;47.032;15.502;2022-09-09T00:23:37;9.88;;;1.00;;
32780;SDS011;19136;47.032;15.502;2022-09-09T00:26:14;5.80;;;0.93;;
32780;SDS011;19136;47.032;15.502;2022-09-09T00:28:51;9.93;;;0.75;;
32780;SDS011;19136;47.032;15.502;2022-09-09T00:31:22;4.80;;;1.13;;
32780;SDS011;19136;47.032;15.502;2022-09-09T00:33:50;4.50;;;0.88;;
32780;SDS011;19136;47.032;15.502;2022-09-09T00:36:21;8.27;;;1.00;;
32780;SDS011;19136;47.032;15.502;2022-09-09T00:38:49;6.32;;;1.10;;
32780;SDS011;19136;47.032;15.502;2022-09-09T00:41:22;10.27;;;1.08;;
32780;SDS011;19136;47.032;15.502;2022-09-09T00:43:55;2.17;;;0.75;;
32780;SDS011;19136;47.032;15.502;2022-09-09T00:52:28;6.88;;;0.73;;
32780;SDS011;19136;47.032;15.502;2022-09-09T00:55:17;4.18;;;1.10;;
32780;SDS011;19136;47.032;15.502;2022-09-09T00:57:46;2.65;;;1.05;;
32780;SDS011;19136;47.032;15.502;2022-09-09T01:00:33;7.43;;;1.00;;
32780;SDS011;19136;47.032;15.502;2022-09-09T01:08:48;4.88;;;1.00;;
32780;SDS011;19136;47.032;15.502;2022-09-09T01:11:38;11.60;;;1.35;;
32780;SDS011;19136;47.032;15.502;2022-09-09T01:17:01;9.80;;;1.20;;
32780;SDS011;19136;47.032;15.502;2022-09-09T01:20:14;10.50;;;0.90;;
32780;SDS011;19136;47.032;15.502;2022-09-09T01:28:10;2.17;;;0.65;;
32780;SDS011;19136;47.032;15.502;2022-09-09T01:30:40;8.23;;;1.00;;
32780;SDS011;19136;47.032;15.502;2022-09-09T01:33:13;7.05;;;1.00;;
32780;SDS011;19136;47.032;15.502;2022-09-09T01:38:27;6.53;;;1.00;;
32780;SDS011;19136;47.032;15.502;2022-09-09T01:40:53;1.77;;;1.05;;
32780;SDS011;19136;47.032;15.502;2022-09-09T01:43:22;8.63;;;1.08;;
32780;SDS011;19136;47.032;15.502;2022-09-09T01:45:49;10.88;;;1.17;;
32780;SDS011;19136;47.032;15.502;2022-09-09T01:48:17;3.80;;;0.98;;
32780;SDS011;19136;47.032;15.502;2022-09-09T01:50:44;5.13;;;2.15;;
32780;SDS011;19136;47.032;15.502;2022-09-09T01:53:09;13.85;;;1.35;;
32780;SDS011;19136;47.032;15.502;2022-09-09T01:55:40;4.50;;;1.27;;
32780;SDS011;19136;47.032;15.502;2022-09-09T02:03:41;5.70;;;0.80;;
32780;SDS011;19136;47.032;15.502;2022-09-09T02:09:06;7.20;;;1.08;;
32780;SDS011;19136;47.032;15.502;2022-09-09T02:11:33;12.60;;;1.00;;
32780;SDS011;19136;47.032;15.502;2022-09-09T02:14:10;3.30;;;0.95;;
32780;SDS011;19136;47.032;15.502;2022-09-09T02:16:39;1.25;;;0.75;;
32780;SDS011;19136;47.032;15.502;2022-09-09T02:21:37;6.80;;;1.30;;
32780;SDS011;19136;47.032;15.502;2022-09-09T02:24:04;2.80;;;0.95;;
32780;SDS011;19136;47.032;15.502;2022-09-09T02:26:33;2.67;;;1.20;;
32780;SDS011;19136;47.032;15.502;2022-09-09T02:28:59;6.38;;;1.23;;
32780;SDS011;19136;47.032;15.502;2022-09-09T02:31:27;5.68;;;1.02;;
32780;SDS011;19136;47.032;15.502;2022-09-09T02:33:57;6.60;;;1.23;;
32780;SDS011;19136;47.032;15.502;2022-09-09T02:36:26;6.43;;;1.30;;
32780;SDS011;19136;47.032;15.502;2022-09-09T02:38:54;6.60;;;1.30;;
32780;SDS011;19136;47.032;15.502;2022-09-09T02:41:22;5.40;;;0.95;;
32780;SDS011;19136;47.032;15.502;2022-09-09T02:43:51;7.45;;;1.30;;
32780;SDS011;19136;47.032;15.502;2022-09-09T02:46:35;8.18;;;2.65;;
32780;SDS011;19136;47.032;15.502;2022-09-09T02:49:07;4.90;;;1.02;;
32780;SDS011;19136;47.032;15.502;2022-09-09T02:54:25;2.58;;;1.25;;
32780;SDS011;19136;47.032;15.502;2022-09-09T02:56:55;17.77;;;1.58;;
32780;SDS011;19136;47.032;15.502;2022-09-09T02:59:30;8.68;;;1.50;;
32780;SDS011;19136;47.032;15.502;2022-09-09T03:01:56;8.77;;;1.65;;
32780;SDS011;19136;47.032;15.502;2022-09-09T03:04:21;9.75;;;1.60;;
32780;SDS011;19136;47.032;15.502;2022-09-09T03:06:47;11.52;;;1.40;;
32780;SDS011;19136;47.032;15.502;2022-09-09T03:09:12;2.47;;;0.85;;
32780;SDS011;19136;47.032;15.502;2022-09-09T03:11:38;10.70;;;1.10;;
32780;SDS011;19136;47.032;15.502;2022-09-09T03:14:04;9.75;;;1.08;;
32780;SDS011;19136;47.032;15.502;2022-09-09T03:16:29;7.72;;;2.55;;
32780;SDS011;19136;47.032;15.502;2022-09-09T03:18:55;7.20;;;1.15;;
32780;SDS011;19136;47.032;15.502;2022-09-09T03:21:20;7.95;;;1.98;;
32780;SDS011;19136;47.032;15.502;2022-09-09T03:23:46;8.30;;;1.70;;
32780;SDS011;19136;47.032;15.502;2022-09-09T03:26:12;8.10;;;1.00;;
32780;SDS011;19136;47.032;15.502;2022-09-09T03:28:39;5.43;;;1.45;;
32780;SDS011;19136;47.032;15.502;2022-09-09T03:31:05;6.60;;;0.88;;
32780;SDS011;19136;47.032;15.502;2022-09-09T03:33:31;11.55;;;1.40;;
32780;SDS011;19136;47.032;15.502;2022-09-09T03:35:57;5.03;;;0.98;;
32780;SDS011;19136;47.032;15.502;2022-09-09T03:38:23;5.53;;;1.35;;
32780;SDS011;19136;47.032;15.502;2022-09-09T03:40:53;9.07;;;1.13;;
32780;SDS011;19136;47.032;15.502;2022-09-09T03:43:26;10.38;;;1.38;;
32780;SDS011;19136;47.032;15.502;2022-09-09T03:45:52;9.30;;;1.08;;
32780;SDS011;19136;47.032;15.502;2022-09-09T03:48:18;6.30;;;1.00;;
32780;SDS011;19136;47.032;15.502;2022-09-09T03:50:48;7.60;;;1.17;;
32780;SDS011;19136;47.032;15.502;2022-09-09T03:53:15;7.65;;;1.23;;
32780;SDS011;19136;47.032;15.502;2022-09-09T03:55:48;8.32;;;1.02;;
32780;SDS011;19136;47.032;15.502;2022-09-09T03:58:16;4.03;;;0.90;;
32780;SDS011;19136;47.032;15.502;2022-09-09T04:00:43;3.85;;;0.95;;
32780;SDS011;19136;47.032;15.502;2022-09-09T04:03:17;3.78;;;1.10;;
32780;SDS011;19136;47.032;15.502;2022-09-09T04:05:43;10.95;;;1.10;;
32780;SDS011;19136;47.032;15.502;2022-09-09T04:08:09;5.57;;;1.20;;
32780;SDS011;19136;47.032;15.502;2022-09-09T04:10:34;5.80;;;1.10;;
32780;SDS011;19136;47.032;15.502;2022-09-09T04:13:03;5.45;;;1.13;;
32780;SDS011;19136;47.032;15.502;2022-09-09T04:15:30;5.13;;;1.00;;
32780;SDS011;19136;47.032;15.502;2022-09-09T04:17:56;2.42;;;1.45;;
32780;SDS011;19136;47.032;15.502;2022-09-09T04:20:21;5.72;;;1.65;;
32780;SDS011;19136;47.032;15.502;2022-09-09T04:22:47;4.65;;;1.05;;
32780;SDS011;19136;47.032;15.502;2022-09-09T04:25:13;9.98;;;1.20;;
32780;SDS011;19136;47.032;15.502;2022-09-09T04:27:38;6.75;;;1.30;;
32780;SDS011;19136;47.032;15.502;2022-09-09T04:30:04;5.13;;;1.13;;
32780;SDS011;19136;47.032;15.502;2022-09-09T04:32:32;10.73;;;1.55;;
32780;SDS011;19136;47.032;15.502;2022-09-09T04:34:58;9.80;;;1.33;;
32780;SDS011;19136;47.032;15.502;2022-09-09T04:37:23;4.50;;;1.33;;
32780;SDS011;19136;47.032;15.502;2022-09-09T04:39:50;6.82;;;1.65;;
32780;SDS011;19136;47.032;15.502;2022-09-09T04:42:15;7.50;;;1.65;;
32780;SDS011;19136;47.032;15.502;2022-09-09T04:44:43;8.63;;;1.73;;
32780;SDS011;19136;47.032;15.502;2022-09-09T04:47:09;7.40;;;1.30;;
32780;SDS011;19136;47.032;15.502;2022-09-09T04:49:34;6.35;;;1.23;;
32780;SDS011;19136;47.032;15.502;2022-09-09T04:52:02;4.35;;;1.17;;
32780;SDS011;19136;47.032;15.502;2022-09-09T04:54:28;12.25;;;1.65;;
32780;SDS011;19136;47.032;15.502;2022-09-09T04:56:54;3.97;;;1.40;;
32780;SDS011;19136;47.032;15.502;2022-09-09T04:59:20;7.03;;;1.30;;
32780;SDS011;19136;47.032;15.502;2022-09-09T05:01:47;16.60;;;1.40;;
32780;SDS011;19136;47.032;15.502;2022-09-09T05:04:13;2.20;;;1.02;;
32780;SDS011;19136;47.032;15.502;2022-09-09T05:06:40;8.52;;;1.55;;
32780;SDS011;19136;47.032;15.502;2022-09-09T05:09:07;5.75;;;1.45;;
32780;SDS011;19136;47.032;15.502;2022-09-09T05:11:33;12.57;;;1.17;;
32780;SDS011;19136;47.032;15.502;2022-09-09T05:14:01;6.45;;;1.20;;
32780;SDS011;19136;47.032;15.502;2022-09-09T05:16:28;8.43;;;2.22;;
32780;SDS011;19136;47.032;15.502;2022-09-09T05:18:56;4.65;;;1.40;;
32780;SDS011;19136;47.032;15.502;2022-09-09T05:21:25;3.67;;;1.30;;
32780;SDS011;19136;47.032;15.502;2022-09-09T05:23:51;4.40;;;1.13;;
32780;SDS011;19136;47.032;15.502;2022-09-09T05:26:17;5.68;;;1.30;;
32780;SDS011;19136;47.032;15.502;2022-09-09T05:28:45;11.57;;;1.40;;
32780;SDS011;19136;47.032;15.502;2022-09-09T05:31:11;9.70;;;1.55;;
32780;SDS011;19136;47.032;15.502;2022-09-09T05:33:38;8.48;;;1.30;;
32780;SDS011;19136;47.032;15.502;2022-09-09T05:36:12;8.73;;;1.50;;
32780;SDS011;19136;47.032;15.502;2022-09-09T05:38:39;7.28;;;1.20;;
32780;SDS011;19136;47.032;15.502;2022-09-09T05:41:05;6.95;;;1.35;;
32780;SDS011;19136;47.032;15.502;2022-09-09T05:43:31;6.75;;;1.30;;
32780;SDS011;19136;47.032;15.502;2022-09-09T05:46:04;7.68;;;1.40;;
32780;SDS011;19136;47.032;15.502;2022-09-09T05:48:31;3.55;;;1.25;;
32780;SDS011;19136;47.032;15.502;2022-09-09T05:50:57;5.75;;;1.42;;
32780;SDS011;19136;47.032;15.502;2022-09-09T05:53:28;10.27;;;1.58;;
32780;SDS011;19136;47.032;15.502;2022-09-09T05:56:01;6.18;;;1.13;;
32780;SDS011;19136;47.032;15.502;2022-09-09T05:58:34;6.88;;;1.20;;
32780;SDS011;19136;47.032;15.502;2022-09-09T06:01:10;6.90;;;1.65;;
32780;SDS011;19136;47.032;15.502;2022-09-09T06:03:37;6.20;;;1.30;;
32780;SDS011;19136;47.032;15.502;2022-09-09T06:06:05;3.80;;;1.20;;
32780;SDS011;19136;47.032;15.502;2022-09-09T06:08:33;9.25;;;1.40;;
32780;SDS011;19136;47.032;15.502;2022-09-09T06:11:10;4.40;;;1.30;;
32780;SDS011;19136;47.032;15.502;2022-09-09T06:13:37;3.70;;;1.00;;
32780;SDS011;19136;47.032;15.502;2022-09-09T06:16:05;3.10;;;1.05;;
32780;SDS011;19136;47.032;15.502;2022-09-09T06:18:34;11.55;;;1.42;;
32780;SDS011;19136;47.032;15.502;2022-09-09T06:21:00;4.07;;;1.55;;
32780;SDS011;19136;47.032;15.502;2022-09-09T06:23:28;4.55;;;1.35;;
32780;SDS011;19136;47.032;15.502;2022-09-09T06:26:07;3.42;;;1.92;;
32780;SDS011;19136;47.032;15.502;2022-09-09T06:28:35;9.45;;;1.35;;
32780;SDS011;19136;47.032;15.502;2022-09-09T06:31:02;3.22;;;1.30;;
32780;SDS011;19136;47.032;15.502;2022-09-09T06:33:33;3.65;;;1.38;;
32780;SDS011;19136;47.032;15.502;2022-09-09T06:36:01;13.13;;;1.60;;
32780;SDS011;19136;47.032;15.502;2022-09-09T06:38:27;3.88;;;1.52;;
32780;SDS011;19136;47.032;15.502;2022-09-09T06:40:55;2.85;;;1.40;;
32780;SDS011;19136;47.032;15.502;2022-09-09T06:43:23;4.45;;;1.60;;
32780;SDS011;19136;47.032;15.502;2022-09-09T06:45:56;4.72;;;1.67;;
32780;SDS011;19136;47.032;15.502;2022-09-09T06:48:27;7.53;;;1.58;;
32780;SDS011;19136;47.032;15.502;2022-09-09T06:51:03;6.82;;;1.48;;
32780;SDS011;19136;47.032;15.502;2022-09-09T06:53:29;6.95;;;2.15;;
32780;SDS011;19136;47.032;15.502;2022-09-09T06:55:58;6.07;;;1.42;;
32780;SDS011;19136;47.032;15.502;2022-09-09T06:58:24;4.22;;;1.60;;
32780;SDS011;19136;47.032;15.502;2022-09-09T07:00:49;2.22;;;1.45;;
32780;SDS011;19136;47.032;15.502;2022-09-09T07:03:15;5.88;;;1.67;;
32780;SDS011;19136;47.032;15.502;2022-09-09T07:05:40;7.82;;;1.80;;
32780;SDS011;19136;47.032;15.502;2022-09-09T07:08:06;9.00;;;3.72;;
32780;SDS011;19136;47.032;15.502;2022-09-09T07:10:31;10.65;;;4.20;;
32780;SDS011;19136;47.032;15.502;2022-09-09T07:12:59;12.02;;;4.40;;
32780;SDS011;19136;47.032;15.502;2022-09-09T07:15:26;11.43;;;3.70;;
32780;SDS011;19136;47.032;15.502;2022-09-09T07:17:52;11.52;;;4.07;;
32780;SDS011;19136;47.032;15.502;2022-09-09T07:20:18;8.52;;;3.40;;
32780;SDS011;19136;47.032;15.502;2022-09-09T07:22:45;11.70;;;3.88;;
32780;SDS011;19136;47.032;15.502;2022-09-09T07:25:11;8.55;;;4.13;;
32780;SDS011;19136;47.032;15.502;2022-09-09T07:27:36;13.18;;;4.85;;
32780;SDS011;19136;47.032;15.502;2022-09-09T07:30:02;9.93;;;3.47;;
32780;SDS011;19136;47.032;15.502;2022-09-09T07:32:28;6.57;;;3.55;;
32780;SDS011;19136;47.032;15.502;2022-09-09T07:34:55;15.95;;;3.70;;
32780;SDS011;19136;47.032;15.502;2022-09-09T07:37:23;7.95;;;3.35;;
32780;SDS011;19136;47.032;15.502;2022-09-09T07:39:49;10.82;;;3.05;;
32780;SDS011;19136;47.032;15.502;2022-09-09T07:42:16;12.60;;;3.85;;
32780;SDS011;19136;47.032;15.502;2022-09-09T07:44:41;13.75;;;3.80;;
32780;SDS011;19136;47.032;15.502;2022-09-09T07:47:07;15.57;;;4.50;;
32780;SDS011;19136;47.032;15.502;2022-09-09T07:49:32;13.07;;;4.20;;
32780;SDS011;19136;47.032;15.502;2022-09-09T07:51:59;9.18;;;3.50;;
32780;SDS011;19136;47.032;15.502;2022-09-09T07:54:25;8.90;;;4.07;;
32780;SDS011;19136;47.032;15.502;2022-09-09T07:56:51;12.48;;;4.82;;
32780;SDS011;19136;47.032;15.502;2022-09-09T07:59:16;11.68;;;4.72;;
32780;SDS011;19136;47.032;15.502;2022-09-09T08:01:43;12.48;;;4.05;;
32780;SDS011;19136;47.032;15.502;2022-09-09T08:04:14;13.73;;;5.28;;
32780;SDS011;19136;47.032;15.502;2022-09-09T08:06:44;15.80;;;4.35;;
32780;SDS011;19136;47.032;15.502;2022-09-09T08:09:12;7.50;;;3.85;;
32780;SDS011;19136;47.032;15.502;2022-09-09T08:11:38;9.10;;;3.70;;
32780;SDS011;19136;47.032;15.502;2022-09-09T08:14:04;13.80;;;4.05;;
32780;SDS011;19136;47.032;15.502;2022-09-09T08:16:32;12.38;;;3.83;;
32780;SDS011;19136;47.032;15.502;2022-09-09T08:18:58;14.63;;;3.60;;
32780;SDS011;19136;47.032;15.502;2022-09-09T08:21:29;11.25;;;4.28;;
32780;SDS011;19136;47.032;15.502;2022-09-09T08:23:56;7.90;;;3.50;;
32780;SDS011;19136;47.032;15.502;2022-09-09T08:26:23;10.40;;;3.70;;
32780;SDS011;19136;47.032;15.502;2022-09-09T08:28:51;10.30;;;3.60;;
32780;SDS011;19136;47.032;15.502;2022-09-09T08:31:19;11.48;;;3.50;;
32780;SDS011;19136;47.032;15.502;2022-09-09T08:33:47;7.80;;;3.85;;
32780;SDS011;19136;47.032;15.502;2022-09-09T08:36:17;11.60;;;4.20;;
32780;SDS011;19136;47.032;15.502;2022-09-09T08:38:46;8.93;;;4.00;;
32780;SDS011;19136;47.032;15.502;2022-09-09T08:43:41;8.98;;;3.47;;
32780;SDS011;19136;47.032;15.502;2022-09-09T08:46:44;13.10;;;4.38;;
32780;SDS011;19136;47.032;15.502;2022-09-09T08:52:15;11.25;;;4.03;;
32780;SDS011;19136;47.032;15.502;2022-09-09T08:54:43;12.32;;;3.97;;
32780;SDS011;19136;47.032;15.502;2022-09-09T08:57:11;11.63;;;3.33;;
32780;SDS011;19136;47.032;15.502;2022-09-09T08:59:40;14.02;;;3.70;;
32780;SDS011;19136;47.032;15.502;2022-09-09T09:02:21;11.93;;;3.40;;
32780;SDS011;19136;47.032;15.502;2022-09-09T09:05:04;16.15;;;3.58;;
32780;SDS011;19136;47.032;15.502;2022-09-09T09:07:55;13.95;;;3.22;;
32780;SDS011;19136;47.032;15.502;2022-09-09T09:13:15;8.73;;;3.33;;
32780;SDS011;19136;47.032;15.502;2022-09-09T09:15:48;10.40;;;3.45;;
32780;SDS011;19136;47.032;15.502;2022-09-09T09:18:18;9.65;;;3.60;;
32780;SDS011;19136;47.032;15.502;2022-09-09T09:23:29;12.18;;;3.35;;
32780;SDS011;19136;47.032;15.502;2022-09-09T09:26:19;10.77;;;2.88;;
32780;SDS011;19136;47.032;15.502;2022-09-09T09:28:45;9.25;;;3.13;;
32780;SDS011;19136;47.032;15.502;2022-09-09T09:31:11;12.55;;;3.58;;
32780;SDS011;19136;47.032;15.502;2022-09-09T09:36:07;13.57;;;3.13;;
32780;SDS011;19136;47.032;15.502;2022-09-09T09:38:33;9.35;;;2.65;;
32780;SDS011;19136;47.032;15.502;2022-09-09T09:40:59;9.02;;;2.85;;
32780;SDS011;19136;47.032;15.502;2022-09-09T09:43:29;6.30;;;2.30;;
32780;SDS011;19136;47.032;15.502;2022-09-09T09:45:57;7.07;;;1.83;;
32780;SDS011;19136;47.032;15.502;2022-09-09T09:48:23;5.20;;;2.05;;
32780;SDS011;19136;47.032;15.502;2022-09-09T09:51:00;7.43;;;2.00;;
32780;SDS011;19136;47.032;15.502;2022-09-09T09:53:28;11.63;;;2.88;;
32780;SDS011;19136;47.032;15.502;2022-09-09T09:56:05;9.32;;;2.30;;
32780;SDS011;19136;47.032;15.502;2022-09-09T09:58:51;9.15;;;2.53;;
32780;SDS011;19136;47.032;15.502;2022-09-09T10:03:52;9.75;;;2.25;;
32780;SDS011;19136;47.032;15.502;2022-09-09T10:08:57;10.70;;;2.20;;
32780;SDS011;19136;47.032;15.502;2022-09-09T10:11:26;8.35;;;2.53;;
32780;SDS011;19136;47.032;15.502;2022-09-09T10:16:51;5.65;;;1.85;;
32780;SDS011;19136;47.032;15.502;2022-09-09T10:19:32;4.53;;;1.90;;
32780;SDS011;19136;47.032;15.502;2022-09-09T10:22:09;3.30;;;1.70;;
32780;SDS011;19136;47.032;15.502;2022-09-09T10:24:54;6.05;;;1.80;;
32780;SDS011;19136;47.032;15.502;2022-09-09T10:30:22;6.97;;;1.80;;
32780;SDS011;19136;47.032;15.502;2022-09-09T10:38:30;9.27;;;1.92;;
32780;SDS011;19136;47.032;15.502;2022-09-09T10:41:09;6.60;;;1.60;;
32780;SDS011;19136;47.032;15.502;2022-09-09T10:52:32;4.53;;;1.80;;
32780;SDS011;19136;47.032;15.502;2022-09-09T10:55:18;4.22;;;2.00;;
32780;SDS011;19136;47.032;15.502;2022-09-09T10:57:46;5.35;;;1.70;;
32780;SDS011;19136;47.032;15.502;2022-09-09T11:00:24;5.00;;;1.60;;
32780;SDS011;19136;47.032;15.502;2022-09-09T11:03:00;5.22;;;2.05;;
32780;SDS011;19136;47.032;15.502;2022-09-09T11:05:31;7.95;;;1.67;;
32780;SDS011;19136;47.032;15.502;2022-09-09T11:08:28;10.07;;;1.48;;
32780;SDS011;19136;47.032;15.502;2022-09-09T11:11:07;3.58;;;1.42;;
32780;SDS011;19136;47.032;15.502;2022-09-09T11:18:48;5.07;;;1.80;;
32780;SDS011;19136;47.032;15.502;2022-09-09T11:21:22;4.30;;;1.50;;
32780;SDS011;19136;47.032;15.502;2022-09-09T11:23:53;5.05;;;1.70;;
32780;SDS011;19136;47.032;15.502;2022-09-09T11:26:27;2.92;;;1.30;;
32780;SDS011;19136;47.032;15.502;2022-09-09T11:37:23;2.13;;;1.13;;
32780;SDS011;19136;47.032;15.502;2022-09-09T11:42:46;6.20;;;1.48;;
32780;SDS011;19136;47.032;15.502;2022-09-09T11:45:22;6.45;;;1.33;;
32780;SDS011;19136;47.032;15.502;2022-09-09T11:47:51;3.05;;;1.33;;
32780;SDS011;19136;47.032;15.502;2022-09-09T11:52:49;2.25;;;1.20;;
32780;SDS011;19136;47.032;15.502;2022-09-09T11:55:29;2.58;;;1.17;;
32780;SDS011;19136;47.032;15.502;2022-09-09T11:58:01;2.50;;;1.23;;
32780;SDS011;19136;47.032;15.502;2022-09-09T12:02:59;13.77;;;1.60;;
32780;SDS011;19136;47.032;15.502;2022-09-09T12:05:35;7.93;;;1.40;;
32780;SDS011;19136;47.032;15.502;2022-09-09T12:08:02;3.05;;;1.13;;
32780;SDS011;19136;47.032;15.502;2022-09-09T12:10:29;2.72;;;1.30;;
32780;SDS011;19136;47.032;15.502;2022-09-09T12:15:49;4.13;;;0.90;;
32780;SDS011;19136;47.032;15.502;2022-09-09T12:18:32;4.88;;;1.35;;
32780;SDS011;19136;47.032;15.502;2022-09-09T12:28:49;3.08;;;1.23;;
32780;SDS011;19136;47.032;15.502;2022-09-09T12:31:39;4.20;;;1.80;;
32780;SDS011;19136;47.032;15.502;2022-09-09T12:39:58;3.50;;;1.30;;
32780;SDS011;19136;47.032;15.502;2022-09-09T12:42:24;2.13;;;1.10;;
32780;SDS011;19136;47.032;15.502;2022-09-09T12:44:58;4.47;;;1.50;;
32780;SDS011;19136;47.032;15.502;2022-09-09T12:47:36;6.28;;;2.78;;
32780;SDS011;19136;47.032;15.502;2022-09-09T12:50:15;4.55;;;2.70;;
32780;SDS011;19136;47.032;15.502;2022-09-09T12:52:43;3.45;;;1.58;;
32780;SDS011;19136;47.032;15.502;2022-09-09T12:55:15;3.67;;;1.60;;
32780;SDS011;19136;47.032;15.502;2022-09-09T12:57:42;6.32;;;1.60;;
32780;SDS011;19136;47.032;15.502;2022-09-09T13:02:50;4.53;;;1.38;;
32780;SDS011;19136;47.032;15.502;2022-09-09T13:05:24;4.10;;;2.03;;
32780;SDS011;19136;47.032;15.502;2022-09-09T13:08:28;2.25;;;1.30;;
32780;SDS011;19136;47.032;15.502;2022-09-09T13:10:47;9.38;;;1.40;;
32780;SDS011;19136;47.032;15.502;2022-09-09T13:13:38;2.10;;;1.27;;
32780;SDS011;19136;47.032;15.502;2022-09-09T13:16:07;3.42;;;1.38;;
32780;SDS011;19136;47.032;15.502;2022-09-09T13:18:46;3.88;;;1.10;;
32780;SDS011;19136;47.032;15.502;2022-09-09T13:21:11;3.42;;;1.45;;
32780;SDS011;19136;47.032;15.502;2022-09-09T13:23:38;5.07;;;2.92;;
32780;SDS011;19136;47.032;15.502;2022-09-09T13:26:05;5.22;;;3.15;;
32780;SDS011;19136;47.032;15.502;2022-09-09T13:28:47;5.30;;;1.80;;
32780;SDS011;19136;47.032;15.502;2022-09-09T13:31:24;5.18;;;3.30;;
32780;SDS011;19136;47.032;15.502;2022-09-09T13:33:54;4.05;;;2.08;;
32780;SDS011;19136;47.032;15.502;2022-09-09T13:36:29;6.10;;;1.40;;
32780;SDS011;19136;47.032;15.502;2022-09-09T13:38:56;5.82;;;1.65;;
32780;SDS011;19136;47.032;15.502;2022-09-09T13:41:35;5.63;;;1.27;;
32780;SDS011;19136;47.032;15.502;2022-09-09T13:44:02;2.75;;;1.00;;
32780;SDS011;19136;47.032;15.502;2022-09-09T13:49:02;2.17;;;0.88;;
32780;SDS011;19136;47.032;15.502;2022-09-09T13:51:51;13.48;;;1.25;;
32780;SDS011;19136;47.032;15.502;2022-09-09T13:54:27;6.75;;;1.38;;
32780;SDS011;19136;47.032;15.502;2022-09-09T13:56:52;4.25;;;1.15;;
32780;SDS011;19136;47.032;15.502;2022-09-09T13:59:19;4.03;;;1.20;;
32780;SDS011;19136;47.032;15.502;2022-09-09T14:01:45;2.22;;;1.27;;
32780;SDS011;19136;47.032;15.502;2022-09-09T14:04:11;2.75;;;1.20;;
32780;SDS011;19136;47.032;15.502;2022-09-09T14:06:37;3.25;;;1.30;;
32780;SDS011;19136;47.032;15.502;2022-09-09T14:09:09;4.45;;;1.58;;
32780;SDS011;19136;47.032;15.502;2022-09-09T14:11:36;4.50;;;1.50;;
32780;SDS011;19136;47.032;15.502;2022-09-09T14:14:01;4.43;;;1.30;;
32780;SDS011;19136;47.032;15.502;2022-09-09T14:16:28;5.80;;;1.35;;
32780;SDS011;19136;47.032;15.502;2022-09-09T14:18:54;1.10;;;0.98;;
32780;SDS011;19136;47.032;15.502;2022-09-09T14:21:23;4.07;;;1.30;;
32780;SDS011;19136;47.032;15.502;2022-09-09T14:23:49;2.15;;;1.25;;
32780;SDS011;19136;47.032;15.502;2022-09-09T14:26:14;7.65;;;3.50;;
32780;SDS011;19136;47.032;15.502;2022-09-09T14:28:40;12.90;;;4.63;;
32780;SDS011;19136;47.032;15.502;2022-09-09T14:31:05;4.65;;;3.05;;
32780;SDS011;19136;47.032;15.502;2022-09-09T14:33:31;4.50;;;1.42;;
32780;SDS011;19136;47.032;15.502;2022-09-09T14:35:57;4.60;;;1.27;;
32780;SDS011;19136;47.032;15.502;2022-09-09T14:38:25;3.20;;;1.40;;
32780;SDS011;19136;47.032;15.502;2022-09-09T14:40:53;4.65;;;1.23;;
32780;SDS011;19136;47.032;15.502;2022-09-09T14:43:19;4.65;;;1.30;;
32780;SDS011;19136;47.032;15.502;2022-09-09T14:45:45;2.35;;;1.25;;
32780;SDS011;19136;47.032;15.502;2022-09-09T14:48:13;2.20;;;1.30;;
32780;SDS011;19136;47.032;15.502;2022-09-09T14:50:40;6.40;;;2.00;;
32780;SDS011;19136;47.032;15.502;2022-09-09T14:53:06;7.63;;;2.13;;
32780;SDS011;19136;47.032;15.502;2022-09-09T14:55:34;5.65;;;2.72;;
32780;SDS011;19136;47.032;15.502;2022-09-09T14:57:59;8.15;;;2.10;;
32780;SDS011;19136;47.032;15.502;2022-09-09T15:00:25;7.13;;;2.42;;
32780;SDS011;19136;47.032;15.502;2022-09-09T15:02:52;3.17;;;1.67;;
32780;SDS011;19136;47.032;15.502;2022-09-09T15:05:18;5.93;;;1.73;;
32780;SDS011;19136;47.032;15.502;2022-09-09T15:07:44;4.57;;;3.28;;
32780;SDS011;19136;47.032;15.502;2022-09-09T15:10:09;7.57;;;3.47;;
32780;SDS011;19136;47.032;15.502;2022-09-09T15:12:36;9.27;;;5.00;;
32780;SDS011;19136;47.032;15.502;2022-09-09T15:15:03;10.25;;;2.55;;
32780;SDS011;19136;47.032;15.502;2022-09-09T15:17:30;7.32;;;1.77;;
32780;SDS011;19136;47.032;15.502;2022-09-09T15:19:56;7.18;;;3.38;;
32780;SDS011;19136;47.032;15.502;2022-09-09T15:22:22;7.63;;;2.65;;
32780;SDS011;19136;47.032;15.502;2022-09-09T15:24:49;3.17;;;2.10;;
32780;SDS011;19136;47.032;15.502;2022-09-09T15:27:15;3.47;;;1.70;;
32780;SDS011;19136;47.032;15.502;2022-09-09T15:29:41;3.22;;;2.08;;
32780;SDS011;19136;47.032;15.502;2022-09-09T15:32:07;5.65;;;1.65;;
32780;SDS011;19136;47.032;15.502;2022-09-09T15:34:33;3.90;;;2.25;;
32780;SDS011;19136;47.032;15.502;2022-09-09T15:36:58;4.35;;;2.10;;
32780;SDS011;19136;47.032;15.502;2022-09-09T15:39:25;5.85;;;1.95;;
32780;SDS011;19136;47.032;15.502;2022-09-09T15:41:50;8.88;;;4.65;;
32780;SDS011;19136;47.032;15.502;2022-09-09T15:44:16;5.15;;;2.47;;
32780;SDS011;19136;47.032;15.502;2022-09-09T15:46:48;5.22;;;2.92;;
32780;SDS011;19136;47.032;15.502;2022-09-09T15:49:15;5.78;;;2.83;;
32780;SDS011;19136;47.032;15.502;2022-09-09T15:51:45;7.30;;;3.00;;
32780;SDS011;19136;47.032;15.502;2022-09-09T15:54:13;5.95;;;3.08;;
32780;SDS011;19136;47.032;15.502;2022-09-09T15:56:42;5.82;;;3.53;;
32780;SDS011;19136;47.032;15.502;2022-09-09T15:59:08;9.43;;;2.08;;
32780;SDS011;19136;47.032;15.502;2022-09-09T16:01:34;4.82;;;1.52;;
32780;SDS011;19136;47.032;15.502;2022-09-09T16:03:59;5.18;;;1.95;;
32780;SDS011;19136;47.032;15.502;2022-09-09T16:06:25;6.85;;;1.90;;
32780;SDS011;19136;47.032;15.502;2022-09-09T16:08:53;3.70;;;1.80;;
32780;SDS011;19136;47.032;15.502;2022-09-09T16:11:23;4.70;;;1.55;;
32780;SDS011;19136;47.032;15.502;2022-09-09T16:13:51;6.25;;;1.70;;
32780;SDS011;19136;47.032;15.502;2022-09-09T16:16:19;3.92;;;1.52;;
32780;SDS011;19136;47.032;15.502;2022-09-09T16:18:48;3.20;;;1.50;;
32780;SDS011;19136;47.032;15.502;2022-09-09T16:21:18;4.03;;;1.77;;
32780;SDS011;19136;47.032;15.502;2022-09-09T16:23:49;6.32;;;2.35;;
32780;SDS011;19136;47.032;15.502;2022-09-09T16:26:16;6.20;;;3.60;;
32780;SDS011;19136;47.032;15.502;2022-09-09T16:28:45;4.32;;;2.42;;
32780;SDS011;19136;47.032;15.502;2022-09-09T16:31:18;4.57;;;1.90;;
32780;SDS011;19136;47.032;15.502;2022-09-09T16:33:45;4.10;;;1.80;;
32780;SDS011;19136;47.032;15.502;2022-09-09T16:36:12;5.18;;;1.75;;
32780;SDS011;19136;47.032;15.502;2022-09-09T16:38:42;6.38;;;1.77;;
32780;SDS011;19136;47.032;15.502;2022-09-09T16:41:10;3.85;;;2.03;;
32780;SDS011;19136;47.032;15.502;2022-09-09T16:43:37;4.60;;;1.90;;
32780;SDS011;19136;47.032;15.502;2022-09-09T16:46:03;5.45;;;2.03;;
32780;SDS011;19136;47.032;15.502;2022-09-09T16:48:36;3.65;;;1.80;;
32780;SDS011;19136;47.032;15.502;2022-09-09T16:51:03;2.28;;;1.70;;
32780;SDS011;19136;47.032;15.502;2022-09-09T16:53:35;4.10;;;2.20;;